createdAt,value
2022-10-04T00:02:38.742Z,1.50
2022-10-04T00:05:42.474Z,1.65
2022-10-04T00:08:46.890Z,1.38
2022-10-04T00:11:50.657Z,1.40
2022-10-04T00:14:56.033Z,1.20
2022-10-04T00:18:08.589Z,1.48
2022-10-04T00:21:11.313Z,1.48
2022-10-04T00:24:21.594Z,1.00
2022-10-04T00:27:25.119Z,1.40
2022-10-04T00:30:38.833Z,1.42
2022-10-04T00:33:42.338Z,1.10
2022-10-04T00:36:54.391Z,1.30
2022-10-04T00:39:59.267Z,1.38
2022-10-04T00:43:04.514Z,1.58
2022-10-04T00:46:12.111Z,1.90
2022-10-04T00:49:15.799Z,1.48
2022-10-04T00:52:21.015Z,1.98
2022-10-04T00:55:26.429Z,1.40
2022-10-04T00:58:34.534Z,2.03
2022-10-04T01:01:39.085Z,1.40
2022-10-04T01:04:43.510Z,1.73
2022-10-04T01:07:47.169Z,1.17
2022-10-04T01:10:51.925Z,1.13
2022-10-04T01:14:01.777Z,1.27
2022-10-04T01:17:06.642Z,1.90
2022-10-04T01:20:29.825Z,1.80
2022-10-04T01:23:40.471Z,1.52
2022-10-04T01:26:43.609Z,1.65
2022-10-04T01:29:46.744Z,1.27
2022-10-04T01:32:50.196Z,2.13
2022-10-04T01:35:54.205Z,1.63
2022-10-04T01:38:58.493Z,1.55
2022-10-04T01:42:05.013Z,2.08
2022-10-04T01:45:11.731Z,1.80
2022-10-04T01:48:16.418Z,2.35
2022-10-04T01:51:20.720Z,1.85
2022-10-04T01:54:31.470Z,1.90
2022-10-04T01:57:36.706Z,1.75
2022-10-04T02:00:44.292Z,1.70
2022-10-04T02:03:53.369Z,1.98
2022-10-04T02:06:57.638Z,1.73
2022-10-04T02:10:04.756Z,2.53
2022-10-04T02:13:10.625Z,2.00
2022-10-04T02:16:13.371Z,1.63
2022-10-04T02:19:16.216Z,2.05
2022-10-04T02:22:20.231Z,2.25
2022-10-04T02:25:26.645Z,1.95
2022-10-04T02:28:33.073Z,1.58
2022-10-04T02:31:53.634Z,1.67
2022-10-04T02:34:56.870Z,1.70
2022-10-04T02:38:03.529Z,1.45
2022-10-04T02:41:12.484Z,1.45
2022-10-04T02:44:17.062Z,1.58
2022-10-04T02:47:21.082Z,1.50
2022-10-04T02:50:30.601Z,1.40
2022-10-04T02:53:37.135Z,1.42
2022-10-04T02:56:41.361Z,1.42
2022-10-04T02:59:45.868Z,1.30
2022-10-04T03:03:03.250Z,1.55
2022-10-04T03:06:07.942Z,1.65
2022-10-04T03:09:14.715Z,1.52
2022-10-04T03:12:18.784Z,1.17
2022-10-04T03:15:22.264Z,1.40
2022-10-04T03:18:24.961Z,1.55
2022-10-04T03:21:27.863Z,1.70
2022-10-04T03:24:31.752Z,1.52
2022-10-04T03:27:36.079Z,1.50
2022-10-04T03:30:44.565Z,1.70
2022-10-04T03:33:47.634Z,1.25
2022-10-04T03:36:51.035Z,1.52
2022-10-04T03:39:55.658Z,1.17
2022-10-04T03:43:00.096Z,1.10
2022-10-04T03:46:03.115Z,1.20
2022-10-04T03:49:06.634Z,1.55
2022-10-04T03:52:14.114Z,1.25
2022-10-04T03:55:17.066Z,1.35
2022-10-04T03:58:21.411Z,1.40
2022-10-04T04:01:33.721Z,1.15
2022-10-04T04:04:41.937Z,1.52
2022-10-04T04:07:48.968Z,1.20
2022-10-04T04:10:53.177Z,1.20
2022-10-04T04:14:01.272Z,1.17
2022-10-04T04:17:19.910Z,1.33
2022-10-04T04:20:25.723Z,1.55
2022-10-04T04:23:30.947Z,1.52
2022-10-04T04:26:36.961Z,1.48
2022-10-04T04:29:45.279Z,1.60
2022-10-04T04:32:50.298Z,1.25
2022-10-04T04:35:55.275Z,1.40
2022-10-04T04:39:25.133Z,1.75
2022-10-04T04:42:32.425Z,1.27
2022-10-04T04:45:37.425Z,1.40
2022-10-04T04:48:39.974Z,1.33
2022-10-04T04:51:42.711Z,1.10
2022-10-04T04:54:47.054Z,1.40
2022-10-04T04:57:51.633Z,1.13
2022-10-04T05:00:59.275Z,1.17
2022-10-04T05:04:03.191Z,1.40
2022-10-04T05:07:06.734Z,1.00
2022-10-04T05:10:20.853Z,1.20
2022-10-04T05:13:25.564Z,1.20
2022-10-04T05:16:37.076Z,1.23
2022-10-04T05:19:40.563Z,1.50
2022-10-04T05:22:46.898Z,1.20
2022-10-04T05:25:50.651Z,1.63
2022-10-04T05:28:53.274Z,1.30
2022-10-04T05:32:03.174Z,1.40
2022-10-04T05:35:14.635Z,1.20
2022-10-04T05:38:21.990Z,1.27
2022-10-04T05:41:33.291Z,1.58
2022-10-04T05:48:27.649Z,1.48
2022-10-04T05:51:30.995Z,1.33
2022-10-04T05:54:35.660Z,1.30
2022-10-04T05:57:44.452Z,1.42
2022-10-04T06:00:54.552Z,1.35
2022-10-04T06:04:21.081Z,1.52
2022-10-04T06:07:27.056Z,1.58
2022-10-04T06:10:38.057Z,1.23
2022-10-04T06:13:55.401Z,1.52
2022-10-04T06:17:07.803Z,2.03
2022-10-04T06:20:16.601Z,1.40
2022-10-04T06:23:21.998Z,1.73
2022-10-04T06:26:27.133Z,1.60
2022-10-04T06:29:32.341Z,1.27
2022-10-04T06:32:52.363Z,1.58
2022-10-04T06:36:03.445Z,1.92
2022-10-04T06:39:18.580Z,1.45
2022-10-04T06:42:28.281Z,1.75
2022-10-04T06:45:59.142Z,1.50
2022-10-04T06:49:09.691Z,1.83
2022-10-04T06:52:27.369Z,1.33
2022-10-04T06:55:39.757Z,1.52
2022-10-04T06:58:58.048Z,1.90
2022-10-04T07:02:02.747Z,1.92
2022-10-04T07:05:14.393Z,1.80
2022-10-04T07:08:30.992Z,2.00
2022-10-04T07:11:42.880Z,1.67
2022-10-04T07:14:46.729Z,1.90
2022-10-04T07:17:51.082Z,1.92
2022-10-04T07:21:00.583Z,2.10
2022-10-04T07:24:03.748Z,2.20
2022-10-04T07:27:09.235Z,1.90
2022-10-04T07:30:14.645Z,1.55
2022-10-04T07:33:22.548Z,1.65
2022-10-04T07:36:27.607Z,1.70
2022-10-04T07:39:32.337Z,2.38
2022-10-04T07:42:40.603Z,1.73
2022-10-04T07:45:44.561Z,1.67
2022-10-04T07:48:49.202Z,1.77
2022-10-04T07:52:02.564Z,1.88
2022-10-04T07:55:12.074Z,1.98
2022-10-04T07:58:19.814Z,2.47
2022-10-04T08:01:28.795Z,1.63
2022-10-04T08:04:39.349Z,1.50
2022-10-04T08:07:49.379Z,1.73
2022-10-04T08:10:57.610Z,1.60
2022-10-04T08:14:07.800Z,1.88
2022-10-04T08:17:16.551Z,1.55
2022-10-04T08:20:25.151Z,1.90
2022-10-04T08:23:44.149Z,1.80
2022-10-04T08:26:56.197Z,1.80
2022-10-04T08:30:12.040Z,1.60
2022-10-04T08:33:22.901Z,2.00
2022-10-04T08:36:33.731Z,1.90
2022-10-04T08:39:42.961Z,1.52
2022-10-04T08:43:08.043Z,1.98
2022-10-04T08:46:22.206Z,1.73
2022-10-04T08:49:51.121Z,1.90
2022-10-04T08:53:10.054Z,2.10
2022-10-04T08:56:19.490Z,2.35
2022-10-04T08:59:37.880Z,2.10
2022-10-04T09:02:56.371Z,1.77
2022-10-04T09:06:14.424Z,1.80
2022-10-04T09:09:44.540Z,2.38
2022-10-04T09:12:57.287Z,2.17
2022-10-04T09:16:05.280Z,1.58
2022-10-04T09:19:30.061Z,2.20
2022-10-04T09:22:44.863Z,2.10
2022-10-04T09:25:56.465Z,1.95
2022-10-04T09:29:11.702Z,2.50
2022-10-04T09:32:25.361Z,2.05
2022-10-04T09:35:37.818Z,3.10
2022-10-04T09:39:01.107Z,2.97
2022-10-04T09:42:39.241Z,2.20
2022-10-04T09:45:52.882Z,2.53
2022-10-04T09:49:00.916Z,3.10
2022-10-04T09:52:15.405Z,2.55
2022-10-04T09:55:28.543Z,1.98
2022-10-04T09:58:43.352Z,2.00
2022-10-04T10:01:51.753Z,2.40
2022-10-04T10:05:00.300Z,2.63
2022-10-04T10:08:09.824Z,3.03
2022-10-04T10:11:34.271Z,2.50
2022-10-04T10:15:00.966Z,2.28
2022-10-04T10:18:10.044Z,2.35
2022-10-04T10:21:22.019Z,2.95
2022-10-04T10:24:52.900Z,2.40
2022-10-04T10:28:08.343Z,2.45
2022-10-04T10:31:22.555Z,1.88
2022-10-04T10:34:34.594Z,2.17
2022-10-04T10:37:45.886Z,2.20
2022-10-04T10:40:59.895Z,2.28
2022-10-04T10:44:23.533Z,2.53
2022-10-04T10:47:36.583Z,1.92
2022-10-04T10:51:03.267Z,1.98
2022-10-04T10:54:25.094Z,2.00
2022-10-04T10:57:38.051Z,1.83
2022-10-04T11:00:45.954Z,2.13
2022-10-04T11:04:04.704Z,1.80
2022-10-04T11:07:23.058Z,2.35
2022-10-04T11:10:51.762Z,2.35
2022-10-04T11:14:13.823Z,2.00
2022-10-04T11:17:32.118Z,1.98
2022-10-04T11:20:53.434Z,2.45
2022-10-04T11:24:07.556Z,2.20
2022-10-04T11:27:16.212Z,2.00
2022-10-04T11:30:23.284Z,2.58
2022-10-04T11:33:43.145Z,1.85
2022-10-04T11:36:51.864Z,1.90
2022-10-04T11:40:04.043Z,1.65
2022-10-04T11:43:17.475Z,2.20
2022-10-04T11:46:27.675Z,1.58
2022-10-04T11:49:50.457Z,2.55
2022-10-04T11:53:04.520Z,2.50
2022-10-04T11:56:24.920Z,2.40
2022-10-04T11:59:39.357Z,2.60
2022-10-04T12:02:50.133Z,2.00
2022-10-04T12:05:59.246Z,2.20
2022-10-04T12:09:08.229Z,1.73
2022-10-04T12:12:41.827Z,1.52
2022-10-04T12:15:57.233Z,2.60
2022-10-04T12:19:20.858Z,1.35
2022-10-04T12:22:30.316Z,1.90
2022-10-04T12:25:49.147Z,1.70
2022-10-04T12:29:05.122Z,1.80
2022-10-04T12:32:11.831Z,1.50
2022-10-04T12:35:23.202Z,1.20
2022-10-04T12:38:44.134Z,1.48
2022-10-04T12:41:52.591Z,1.27
2022-10-04T12:45:20.364Z,1.33
2022-10-04T12:48:37.997Z,1.02
2022-10-04T12:51:50.149Z,1.08
2022-10-04T12:54:54.386Z,1.23
2022-10-04T12:57:59.007Z,1.13
2022-10-04T13:01:07.987Z,1.23
2022-10-04T13:04:20.125Z,1.17
2022-10-04T13:07:34.411Z,1.25
2022-10-04T13:14:45.105Z,1.48
2022-10-04T13:17:51.467Z,1.02
2022-10-04T13:20:57.668Z,1.83
2022-10-04T13:24:05.181Z,1.17
2022-10-04T13:27:09.242Z,1.27
2022-10-04T13:30:17.613Z,1.13
2022-10-04T13:33:26.981Z,1.10
2022-10-04T13:36:45.109Z,1.40
2022-10-04T13:40:03.210Z,1.05
2022-10-04T13:43:17.167Z,1.40
2022-10-04T13:46:25.719Z,1.77
2022-10-04T13:49:33.791Z,1.92
2022-10-04T13:52:58.181Z,1.25
2022-10-04T13:56:37.277Z,1.45
2022-10-04T13:59:44.302Z,1.13
2022-10-04T14:03:02.333Z,1.40
2022-10-04T14:06:14.271Z,1.55
2022-10-04T14:09:28.764Z,1.83
2022-10-04T14:12:49.502Z,5.10
2022-10-04T14:16:23.379Z,3.78
2022-10-04T14:19:38.251Z,2.10
2022-10-04T14:22:56.042Z,2.38
2022-10-04T14:26:07.609Z,1.73
2022-10-04T14:29:20.745Z,1.67
2022-10-04T14:32:37.279Z,1.75
2022-10-04T14:35:44.828Z,1.85
2022-10-04T14:39:13.741Z,1.77
2022-10-04T14:42:37.935Z,1.52
2022-10-04T14:45:45.393Z,1.52
2022-10-04T14:48:58.473Z,1.25
2022-10-04T14:52:08.565Z,1.35
2022-10-04T14:55:15.541Z,1.65
2022-10-04T14:58:20.137Z,1.50
2022-10-04T15:01:23.449Z,1.10
2022-10-04T15:04:32.814Z,1.00
2022-10-04T15:07:36.826Z,1.17
2022-10-04T15:10:49.320Z,1.05
2022-10-04T15:13:55.473Z,1.70
2022-10-04T15:17:00.297Z,1.45
2022-10-04T15:20:08.138Z,1.48
2022-10-04T15:23:15.816Z,1.70
2022-10-04T15:26:38.886Z,1.42
2022-10-04T15:29:46.402Z,1.30
2022-10-04T15:32:52.100Z,1.70
2022-10-04T15:36:15.678Z,1.15
2022-10-04T15:39:31.027Z,1.20
2022-10-04T15:42:34.848Z,1.05
2022-10-04T15:46:02.886Z,1.90
2022-10-04T15:49:16.318Z,2.17
2022-10-04T15:52:39.602Z,1.40
2022-10-04T15:55:52.408Z,1.40
2022-10-04T15:59:09.078Z,1.42
2022-10-04T16:02:26.628Z,1.40
2022-10-04T16:05:32.568Z,1.38
2022-10-04T16:08:48.697Z,1.23
2022-10-04T16:11:58.439Z,1.08
2022-10-04T16:15:14.375Z,1.08
2022-10-04T16:18:30.662Z,1.27
2022-10-04T16:21:39.623Z,1.20
2022-10-04T16:24:46.792Z,0.95
2022-10-04T16:27:57.163Z,1.17
2022-10-04T16:31:20.187Z,1.08
2022-10-04T16:34:34.191Z,1.40
2022-10-04T16:37:39.031Z,2.15
2022-10-04T16:40:58.000Z,2.28
2022-10-04T16:44:02.171Z,1.90
2022-10-04T16:47:27.930Z,1.58
2022-10-04T16:50:52.422Z,1.48
2022-10-04T16:53:59.612Z,2.13
2022-10-04T16:57:59.090Z,1.77
2022-10-04T17:01:16.878Z,1.60
2022-10-04T17:04:34.555Z,1.83
2022-10-04T17:07:43.638Z,2.00
2022-10-04T17:11:01.548Z,1.70
2022-10-04T17:14:08.077Z,1.48
2022-10-04T17:17:17.811Z,1.60
2022-10-04T17:20:29.559Z,1.60
2022-10-04T17:23:43.740Z,2.00
2022-10-04T17:26:53.057Z,1.80
2022-10-04T17:30:05.556Z,2.33
2022-10-04T17:33:19.347Z,2.28
2022-10-04T17:36:43.075Z,2.28
2022-10-04T17:39:57.926Z,2.45
2022-10-04T17:43:06.267Z,3.83
2022-10-04T17:46:12.687Z,3.63
2022-10-04T17:49:38.765Z,3.70
2022-10-04T17:53:00.784Z,2.70
2022-10-04T17:56:05.998Z,2.42
2022-10-04T17:59:12.042Z,2.20
2022-10-04T18:02:18.881Z,2.25
2022-10-04T18:05:23.160Z,1.95
2022-10-04T18:08:36.447Z,2.33
2022-10-04T18:11:47.075Z,2.55
2022-10-04T18:14:57.148Z,1.85
2022-10-04T18:18:30.914Z,3.00
2022-10-04T18:21:56.344Z,2.50
2022-10-04T18:25:16.294Z,2.40
2022-10-04T18:28:31.149Z,3.22
2022-10-04T18:31:41.645Z,2.67
2022-10-04T18:34:55.190Z,1.83
2022-10-04T18:38:07.970Z,2.28
2022-10-04T18:41:18.890Z,2.00
2022-10-04T18:44:30.150Z,1.92
2022-10-04T18:47:40.998Z,2.30
2022-10-04T18:50:47.369Z,2.17
2022-10-04T18:53:57.026Z,2.25
2022-10-04T18:57:12.397Z,2.60
2022-10-04T19:00:40.166Z,2.38
2022-10-04T19:03:52.026Z,2.03
2022-10-04T19:07:17.381Z,2.10
2022-10-04T19:10:29.535Z,2.40
2022-10-04T19:13:43.488Z,2.05
2022-10-04T19:17:02.821Z,2.20
2022-10-04T19:20:18.739Z,2.25
2022-10-04T19:23:30.745Z,2.40
2022-10-04T19:26:40.406Z,2.40
2022-10-04T19:29:52.735Z,2.38
2022-10-04T19:33:19.408Z,2.35
2022-10-04T19:36:34.044Z,2.85
2022-10-04T19:39:47.373Z,2.40
2022-10-04T19:42:54.545Z,2.67
2022-10-04T19:46:13.790Z,2.55
2022-10-04T19:49:21.760Z,2.65
2022-10-04T19:52:37.934Z,2.17
2022-10-04T19:55:53.760Z,2.75
2022-10-04T19:59:13.300Z,2.88
2022-10-04T20:02:21.457Z,2.58
2022-10-04T20:05:28.386Z,2.50
2022-10-04T20:09:00.701Z,2.78
2022-10-04T20:12:08.775Z,2.50
2022-10-04T20:15:20.102Z,2.90
2022-10-04T20:18:46.552Z,2.38
2022-10-04T20:21:58.920Z,2.00
2022-10-04T20:25:06.801Z,2.53
2022-10-04T20:28:33.125Z,2.20
2022-10-04T20:31:57.699Z,2.40
2022-10-04T20:35:08.330Z,2.28
2022-10-04T20:42:10.536Z,2.47
2022-10-04T20:45:40.059Z,2.33
2022-10-04T20:48:50.146Z,2.13
2022-10-04T20:51:56.400Z,2.33
2022-10-04T20:55:13.712Z,2.65
2022-10-04T20:58:36.060Z,2.42
2022-10-04T21:02:00.511Z,2.83
2022-10-04T21:05:14.091Z,3.15
2022-10-04T21:08:27.806Z,2.65
2022-10-04T21:11:50.836Z,2.17
2022-10-04T21:15:04.697Z,2.55
2022-10-04T21:18:13.981Z,2.70
2022-10-04T21:21:38.471Z,2.60
2022-10-04T21:25:02.175Z,2.50
2022-10-04T21:28:35.371Z,3.55
2022-10-04T21:31:40.745Z,2.25
2022-10-04T21:34:53.487Z,2.20
2022-10-04T21:38:03.748Z,2.40
2022-10-04T21:41:12.211Z,2.80
2022-10-04T21:44:24.619Z,2.90
2022-10-04T21:47:31.737Z,2.38
2022-10-04T21:50:46.841Z,2.35
2022-10-04T21:53:56.698Z,2.83
2022-10-04T21:57:10.599Z,2.63
2022-10-04T22:00:17.348Z,2.97
2022-10-04T22:03:28.333Z,2.50
2022-10-04T22:06:42.691Z,2.35
2022-10-04T22:09:48.007Z,2.95
2022-10-04T22:12:51.622Z,2.67
2022-10-04T22:15:56.245Z,2.72
2022-10-04T22:18:59.106Z,2.42
2022-10-04T22:22:01.852Z,2.53
2022-10-04T22:25:11.242Z,2.85
2022-10-04T22:28:19.152Z,2.50
2022-10-04T22:31:23.948Z,2.58
2022-10-04T22:34:26.682Z,3.03
2022-10-04T22:37:30.924Z,2.55
2022-10-04T22:40:34.025Z,2.30
2022-10-04T22:43:36.689Z,2.83
2022-10-04T22:46:41.739Z,2.58
2022-10-04T22:49:45.244Z,2.38
2022-10-04T22:52:47.797Z,2.83
2022-10-04T22:55:51.002Z,2.55
2022-10-04T22:59:01.223Z,2.58
2022-10-04T23:02:08.268Z,2.58
2022-10-04T23:05:12.977Z,2.78
2022-10-04T23:08:17.705Z,2.45
2022-10-04T23:11:20.288Z,2.35
2022-10-04T23:14:22.830Z,2.75
2022-10-04T23:17:27.520Z,2.25
2022-10-04T23:20:30.406Z,2.55
2022-10-04T23:23:33.222Z,2.38
2022-10-04T23:26:38.214Z,2.55
2022-10-04T23:29:40.775Z,2.17
2022-10-04T23:32:47.320Z,2.05
2022-10-04T23:35:50.608Z,2.00
2022-10-04T23:38:55.498Z,2.60
2022-10-04T23:41:58.336Z,2.42
2022-10-04T23:45:01.185Z,2.22
2022-10-04T23:48:06.920Z,2.42
2022-10-04T23:51:10.540Z,2.60
2022-10-04T23:54:15.453Z,2.55
2022-10-04T23:57:21.984Z,2.70
